sensor_id;sensor_type;location;lat;lon;timestamp;temperature;humidity
64705;DHT22;51131;52.298;13.686;2023-06-24T00:02:01;21.70;78.50
64705;DHT22;51131;52.298;13.686;2023-06-24T00:04:28;21.60;78.40
64705;DHT22;51131;52.298;13.686;2023-06-24T00:06:55;21.50;78.30
64705;DHT22;51131;52.298;13.686;2023-06-24T00:09:26;21.80;78.70
64705;DHT22;51131;52.298;13.686;2023-06-24T00:11:54;21.60;78.50
64705;DHT22;51131;52.298;13.686;2023-06-24T00:14:21;21.70;78.70
64705;DHT22;51131;52.298;13.686;2023-06-24T00:16:48;21.50;78.40
64705;DHT22;51131;52.298;13.686;2023-06-24T00:19:22;21.60;78.60
64705;DHT22;51131;52.298;13.686;2023-06-24T00:21:49;21.70;78.80
64705;DHT22;51131;52.298;13.686;2023-06-24T00:24:17;21.50;78.50
64705;DHT22;51131;52.298;13.686;2023-06-24T00:26:46;21.80;78.70
64705;DHT22;51131;52.298;13.686;2023-06-24T00:29:13;21.50;78.50
64705;DHT22;51131;52.298;13.686;2023-06-24T00:31:40;21.50;78.60
64705;DHT22;51131;52.298;13.686;2023-06-24T00:34:07;21.80;78.80
64705;DHT22;51131;52.298;13.686;2023-06-24T00:36:34;21.50;78.60
64705;DHT22;51131;52.298;13.686;2023-06-24T00:39:04;21.50;78.60
64705;DHT22;51131;52.298;13.686;2023-06-24T00:41:32;21.50;78.60
64705;DHT22;51131;52.298;13.686;2023-06-24T00:43:59;21.50;78.60
64705;DHT22;51131;52.298;13.686;2023-06-24T00:46:26;21.50;78.50
64705;DHT22;51131;52.298;13.686;2023-06-24T00:48:56;21.50;78.60
64705;DHT22;51131;52.298;13.686;2023-06-24T00:51:23;21.50;78.60
64705;DHT22;51131;52.298;13.686;2023-06-24T00:53:57;21.60;78.70
64705;DHT22;51131;52.298;13.686;2023-06-24T00:56:26;21.70;78.80
64705;DHT22;51131;52.298;13.686;2023-06-24T00:58:54;21.50;78.60
64705;DHT22;51131;52.298;13.686;2023-06-24T01:01:21;21.50;78.60
64705;DHT22;51131;52.298;13.686;2023-06-24T01:03:48;21.90;79.00
64705;DHT22;51131;52.298;13.686;2023-06-24T01:06:15;21.70;78.80
64705;DHT22;51131;52.298;13.686;2023-06-24T01:08:42;21.40;78.60
64705;DHT22;51131;52.298;13.686;2023-06-24T01:11:09;21.40;78.50
64705;DHT22;51131;52.298;13.686;2023-06-24T01:13:35;21.90;79.00
64705;DHT22;51131;52.298;13.686;2023-06-24T01:16:10;21.80;78.90
64705;DHT22;51131;52.298;13.686;2023-06-24T01:18:49;21.40;78.60
64705;DHT22;51131;52.298;13.686;2023-06-24T01:21:21;21.40;78.60
64705;DHT22;51131;52.298;13.686;2023-06-24T01:24:13;21.40;78.60
64705;DHT22;51131;52.298;13.686;2023-06-24T01:27:03;21.40;78.70
64705;DHT22;51131;52.298;13.686;2023-06-24T01:29:42;21.40;78.60
64705;DHT22;51131;52.298;13.686;2023-06-24T01:32:19;21.40;78.60
64705;DHT22;51131;52.298;13.686;2023-06-24T01:34:55;21.40;78.70
64705;DHT22;51131;52.298;13.686;2023-06-24T01:42:26;21.40;78.70
64705;DHT22;51131;52.298;13.686;2023-06-24T01:44:55;21.60;79.00
64705;DHT22;51131;52.298;13.686;2023-06-24T01:47:23;21.40;78.80
64705;DHT22;51131;52.298;13.686;2023-06-24T01:49:52;21.50;78.90
64705;DHT22;51131;52.298;13.686;2023-06-24T01:52:23;21.50;78.80
64705;DHT22;51131;52.298;13.686;2023-06-24T01:54:50;21.40;79.40
64705;DHT22;51131;52.298;13.686;2023-06-24T01:57:18;21.40;78.80
64705;DHT22;51131;52.298;13.686;2023-06-24T01:59:45;21.50;78.90
64705;DHT22;51131;52.298;13.686;2023-06-24T02:02:12;21.70;79.10
64705;DHT22;51131;52.298;13.686;2023-06-24T02:04:39;21.40;78.80
64705;DHT22;51131;52.298;13.686;2023-06-24T02:07:07;21.70;79.10
64705;DHT22;51131;52.298;13.686;2023-06-24T02:09:34;21.30;78.70
64705;DHT22;51131;52.298;13.686;2023-06-24T02:12:01;21.40;78.80
64705;DHT22;51131;52.298;13.686;2023-06-24T02:14:29;21.30;78.70
64705;DHT22;51131;52.298;13.686;2023-06-24T02:16:58;21.40;78.80
64705;DHT22;51131;52.298;13.686;2023-06-24T02:19:27;21.80;79.20
64705;DHT22;51131;52.298;13.686;2023-06-24T02:21:56;21.50;78.90
64705;DHT22;51131;52.298;13.686;2023-06-24T02:24:23;21.30;78.90
64705;DHT22;51131;52.298;13.686;2023-06-24T02:26:50;21.70;79.20
64705;DHT22;51131;52.298;13.686;2023-06-24T02:29:17;21.30;78.70
64705;DHT22;51131;52.298;13.686;2023-06-24T02:31:44;21.30;78.70
64705;DHT22;51131;52.298;13.686;2023-06-24T02:34:11;21.30;78.70
64705;DHT22;51131;52.298;13.686;2023-06-24T02:36:37;21.80;79.70
64705;DHT22;51131;52.298;13.686;2023-06-24T02:39:05;21.30;78.60
64705;DHT22;51131;52.298;13.686;2023-06-24T02:41:31;21.80;79.00
64705;DHT22;51131;52.298;13.686;2023-06-24T02:43:58;21.40;78.80
64705;DHT22;51131;52.298;13.686;2023-06-24T02:46:25;21.30;78.50
64705;DHT22;51131;52.298;13.686;2023-06-24T02:48:56;21.40;78.80
64705;DHT22;51131;52.298;13.686;2023-06-24T02:51:24;21.30;78.60
64705;DHT22;51131;52.298;13.686;2023-06-24T02:53:51;21.30;78.60
64705;DHT22;51131;52.298;13.686;2023-06-24T02:56:18;21.40;78.70
64705;DHT22;51131;52.298;13.686;2023-06-24T02:58:47;21.30;78.60
64705;DHT22;51131;52.298;13.686;2023-06-24T03:01:14;20.80;78.10
64705;DHT22;51131;52.298;13.686;2023-06-24T03:03:42;21.90;79.20
64705;DHT22;51131;52.298;13.686;2023-06-24T03:06:09;21.30;78.60
64705;DHT22;51131;52.298;13.686;2023-06-24T03:08:39;21.70;79.10
64705;DHT22;51131;52.298;13.686;2023-06-24T03:11:05;21.30;78.60
64705;DHT22;51131;52.298;13.686;2023-06-24T03:13:32;21.60;78.90
64705;DHT22;51131;52.298;13.686;2023-06-24T03:15:59;21.20;78.60
64705;DHT22;51131;52.298;13.686;2023-06-24T03:18:25;21.10;78.50
64705;DHT22;51131;52.298;13.686;2023-06-24T03:20:52;21.30;78.60
64705;DHT22;51131;52.298;13.686;2023-06-24T03:23:19;21.50;79.00
64705;DHT22;51131;52.298;13.686;2023-06-24T03:25:46;21.70;79.10
64705;DHT22;51131;52.298;13.686;2023-06-24T03:28:12;21.40;78.80
64705;DHT22;51131;52.298;13.686;2023-06-24T03:30:39;21.20;78.50
64705;DHT22;51131;52.298;13.686;2023-06-24T03:33:06;21.40;78.70
64705;DHT22;51131;52.298;13.686;2023-06-24T03:35:32;21.30;78.70
64705;DHT22;51131;52.298;13.686;2023-06-24T03:38:00;21.20;78.50
64705;DHT22;51131;52.298;13.686;2023-06-24T03:40:27;21.70;78.90
64705;DHT22;51131;52.298;13.686;2023-06-24T03:42:53;21.60;78.90
64705;DHT22;51131;52.298;13.686;2023-06-24T03:45:20;21.40;78.70
64705;DHT22;51131;52.298;13.686;2023-06-24T03:47:47;21.20;78.40
64705;DHT22;51131;52.298;13.686;2023-06-24T03:50:13;21.80;79.10
64705;DHT22;51131;52.298;13.686;2023-06-24T03:52:40;21.20;78.50
64705;DHT22;51131;52.298;13.686;2023-06-24T03:55:07;21.20;78.50
64705;DHT22;51131;52.298;13.686;2023-06-24T03:57:34;21.20;78.50
64705;DHT22;51131;52.298;13.686;2023-06-24T04:00:01;21.40;78.60
64705;DHT22;51131;52.298;13.686;2023-06-24T04:02:27;21.20;78.50
64705;DHT22;51131;52.298;13.686;2023-06-24T04:04:55;21.30;78.50
64705;DHT22;51131;52.298;13.686;2023-06-24T04:07:22;21.20;78.40
64705;DHT22;51131;52.298;13.686;2023-06-24T04:09:54;21.30;78.50
64705;DHT22;51131;52.298;13.686;2023-06-24T04:12:21;21.20;78.40
64705;DHT22;51131;52.298;13.686;2023-06-24T04:14:48;21.20;78.30
64705;DHT22;51131;52.298;13.686;2023-06-24T04:17:15;21.50;78.60
64705;DHT22;51131;52.298;13.686;2023-06-24T04:19:41;21.30;78.50
64705;DHT22;51131;52.298;13.686;2023-06-24T04:22:08;21.70;78.90
64705;DHT22;51131;52.298;13.686;2023-06-24T04:24:35;21.20;78.50
64705;DHT22;51131;52.298;13.686;2023-06-24T04:27:02;21.20;78.40
64705;DHT22;51131;52.298;13.686;2023-06-24T04:29:29;21.20;78.40
64705;DHT22;51131;52.298;13.686;2023-06-24T04:31:55;21.70;78.70
64705;DHT22;51131;52.298;13.686;2023-06-24T04:34:22;21.20;78.20
64705;DHT22;51131;52.298;13.686;2023-06-24T04:36:49;21.30;78.30
64705;DHT22;51131;52.298;13.686;2023-06-24T04:39:15;21.40;78.40
64705;DHT22;51131;52.298;13.686;2023-06-24T04:41:42;21.20;78.30
64705;DHT22;51131;52.298;13.686;2023-06-24T04:44:09;21.20;78.40
64705;DHT22;51131;52.298;13.686;2023-06-24T04:46:35;21.20;78.40
64705;DHT22;51131;52.298;13.686;2023-06-24T04:49:03;21.10;78.40
64705;DHT22;51131;52.298;13.686;2023-06-24T04:51:30;21.20;78.50
64705;DHT22;51131;52.298;13.686;2023-06-24T04:53:57;21.10;78.30
64705;DHT22;51131;52.298;13.686;2023-06-24T04:56:23;21.40;78.70
64705;DHT22;51131;52.298;13.686;2023-06-24T04:58:51;21.30;78.70
64705;DHT22;51131;52.298;13.686;2023-06-24T05:01:17;21.30;78.50
64705;DHT22;51131;52.298;13.686;2023-06-24T05:03:44;21.50;78.80
64705;DHT22;51131;52.298;13.686;2023-06-24T05:06:11;21.10;78.30
64705;DHT22;51131;52.298;13.686;2023-06-24T05:08:37;21.70;78.90
64705;DHT22;51131;52.298;13.686;2023-06-24T05:11:04;21.20;78.40
64705;DHT22;51131;52.298;13.686;2023-06-24T05:13:32;21.20;78.40
64705;DHT22;51131;52.298;13.686;2023-06-24T05:15:58;21.60;78.70
64705;DHT22;51131;52.298;13.686;2023-06-24T05:18:25;21.10;78.30
64705;DHT22;51131;52.298;13.686;2023-06-24T05:20:52;21.10;78.30
64705;DHT22;51131;52.298;13.686;2023-06-24T05:23:19;21.20;78.40
64705;DHT22;51131;52.298;13.686;2023-06-24T05:25:45;21.60;78.90
64705;DHT22;51131;52.298;13.686;2023-06-24T05:28:12;21.20;78.60
64705;DHT22;51131;52.298;13.686;2023-06-24T05:30:40;21.30;78.40
64705;DHT22;51131;52.298;13.686;2023-06-24T05:33:07;21.10;78.30
64705;DHT22;51131;52.298;13.686;2023-06-24T05:35:36;21.30;78.50
64705;DHT22;51131;52.298;13.686;2023-06-24T05:38:06;21.30;78.40
64705;DHT22;51131;52.298;13.686;2023-06-24T05:40:33;21.10;78.30
64705;DHT22;51131;52.298;13.686;2023-06-24T05:42:59;21.10;78.30
64705;DHT22;51131;52.298;13.686;2023-06-24T05:45:27;21.30;78.40
64705;DHT22;51131;52.298;13.686;2023-06-24T05:47:53;21.30;78.40
64705;DHT22;51131;52.298;13.686;2023-06-24T05:50:20;21.10;78.20
64705;DHT22;51131;52.298;13.686;2023-06-24T05:52:47;21.50;78.60
64705;DHT22;51131;52.298;13.686;2023-06-24T05:55:13;21.20;78.40
64705;DHT22;51131;52.298;13.686;2023-06-24T05:57:40;21.10;78.20
64705;DHT22;51131;52.298;13.686;2023-06-24T06:00:07;21.20;78.30
64705;DHT22;51131;52.298;13.686;2023-06-24T06:02:33;21.10;78.30
64705;DHT22;51131;52.298;13.686;2023-06-24T06:05:00;21.50;78.70
64705;DHT22;51131;52.298;13.686;2023-06-24T06:07:27;21.10;78.50
64705;DHT22;51131;52.298;13.686;2023-06-24T06:09:54;21.20;78.50
64705;DHT22;51131;52.298;13.686;2023-06-24T06:12:22;21.30;78.50
64705;DHT22;51131;52.298;13.686;2023-06-24T06:14:48;21.20;78.40
64705;DHT22;51131;52.298;13.686;2023-06-24T06:17:15;21.20;78.60
64705;DHT22;51131;52.298;13.686;2023-06-24T06:19:41;21.10;78.60
64705;DHT22;51131;52.298;13.686;2023-06-24T06:22:08;21.30;78.80
64705;DHT22;51131;52.298;13.686;2023-06-24T06:24:35;21.30;78.90
64705;DHT22;51131;52.298;13.686;2023-06-24T06:27:01;21.30;78.70
64705;DHT22;51131;52.298;13.686;2023-06-24T06:29:28;21.10;78.40
64705;DHT22;51131;52.298;13.686;2023-06-24T06:31:55;21.20;78.70
64705;DHT22;51131;52.298;13.686;2023-06-24T06:34:23;21.20;78.40
64705;DHT22;51131;52.298;13.686;2023-06-24T06:36:50;21.20;78.80
64705;DHT22;51131;52.298;13.686;2023-06-24T06:39:18;21.20;79.00
64705;DHT22;51131;52.298;13.686;2023-06-24T06:41:44;21.10;78.60
64705;DHT22;51131;52.298;13.686;2023-06-24T06:44:11;21.20;78.80
64705;DHT22;51131;52.298;13.686;2023-06-24T06:46:38;21.20;78.80
64705;DHT22;51131;52.298;13.686;2023-06-24T06:49:04;21.10;78.70
64705;DHT22;51131;52.298;13.686;2023-06-24T06:51:31;21.30;79.20
64705;DHT22;51131;52.298;13.686;2023-06-24T06:53:58;21.10;79.00
64705;DHT22;51131;52.298;13.686;2023-06-24T06:56:25;21.10;78.60
64705;DHT22;51131;52.298;13.686;2023-06-24T06:58:52;21.10;78.60
64705;DHT22;51131;52.298;13.686;2023-06-24T07:01:18;21.10;78.60
64705;DHT22;51131;52.298;13.686;2023-06-24T07:03:45;21.10;78.60
64705;DHT22;51131;52.298;13.686;2023-06-24T07:06:12;21.20;79.20
64705;DHT22;51131;52.298;13.686;2023-06-24T07:08:38;21.10;79.20
64705;DHT22;51131;52.298;13.686;2023-06-24T07:11:05;21.10;79.30
64705;DHT22;51131;52.298;13.686;2023-06-24T07:13:32;21.10;78.90
64705;DHT22;51131;52.298;13.686;2023-06-24T07:15:59;21.20;79.00
64705;DHT22;51131;52.298;13.686;2023-06-24T07:18:25;21.20;79.20
64705;DHT22;51131;52.298;13.686;2023-06-24T07:20:56;21.10;79.00
64705;DHT22;51131;52.298;13.686;2023-06-24T07:23:23;21.10;78.90
64705;DHT22;51131;52.298;13.686;2023-06-24T07:25:50;21.10;79.00
64705;DHT22;51131;52.298;13.686;2023-06-24T07:28:17;21.20;79.10
64705;DHT22;51131;52.298;13.686;2023-06-24T07:30:44;21.20;79.30
64705;DHT22;51131;52.298;13.686;2023-06-24T07:33:11;21.30;79.90
64705;DHT22;51131;52.298;13.686;2023-06-24T07:35:39;21.10;79.50
64705;DHT22;51131;52.298;13.686;2023-06-24T07:38:05;21.10;80.10
64705;DHT22;51131;52.298;13.686;2023-06-24T07:40:32;21.10;79.70
64705;DHT22;51131;52.298;13.686;2023-06-24T07:42:59;21.20;80.00
64705;DHT22;51131;52.298;13.686;2023-06-24T07:45:25;21.20;80.00
64705;DHT22;51131;52.298;13.686;2023-06-24T07:47:52;21.20;79.60
64705;DHT22;51131;52.298;13.686;2023-06-24T07:50:19;21.80;80.30
64705;DHT22;51131;52.298;13.686;2023-06-24T07:52:45;21.20;79.80
64705;DHT22;51131;52.298;13.686;2023-06-24T07:55:12;21.10;80.10
64705;DHT22;51131;52.298;13.686;2023-06-24T07:57:39;21.20;80.00
64705;DHT22;51131;52.298;13.686;2023-06-24T08:00:06;21.10;79.80
64705;DHT22;51131;52.298;13.686;2023-06-24T08:02:35;21.10;79.90
64705;DHT22;51131;52.298;13.686;2023-06-24T08:05:02;21.20;79.50
64705;DHT22;51131;52.298;13.686;2023-06-24T08:07:29;21.10;79.70
64705;DHT22;51131;52.298;13.686;2023-06-24T08:09:56;21.10;79.80
64705;DHT22;51131;52.298;13.686;2023-06-24T08:12:23;21.10;80.00
64705;DHT22;51131;52.298;13.686;2023-06-24T08:14:50;21.20;80.10
64705;DHT22;51131;52.298;13.686;2023-06-24T08:17:16;21.10;80.00
64705;DHT22;51131;52.298;13.686;2023-06-24T08:19:43;21.10;80.40
64705;DHT22;51131;52.298;13.686;2023-06-24T08:22:09;21.10;80.00
64705;DHT22;51131;52.298;13.686;2023-06-24T08:24:36;21.10;80.00
64705;DHT22;51131;52.298;13.686;2023-06-24T08:27:03;21.10;80.10
64705;DHT22;51131;52.298;13.686;2023-06-24T08:29:30;21.10;80.00
64705;DHT22;51131;52.298;13.686;2023-06-24T08:31:56;21.10;79.70
64705;DHT22;51131;52.298;13.686;2023-06-24T08:34:23;21.10;79.60
64705;DHT22;51131;52.298;13.686;2023-06-24T08:36:52;21.10;79.60
64705;DHT22;51131;52.298;13.686;2023-06-24T08:39:19;21.40;79.90
64705;DHT22;51131;52.298;13.686;2023-06-24T08:41:45;21.10;79.70
64705;DHT22;51131;52.298;13.686;2023-06-24T08:44:12;21.20;80.00
64705;DHT22;51131;52.298;13.686;2023-06-24T08:46:39;21.10;79.90
64705;DHT22;51131;52.298;13.686;2023-06-24T08:49:12;21.40;80.00
64705;DHT22;51131;52.298;13.686;2023-06-24T08:51:42;21.10;79.90
64705;DHT22;51131;52.298;13.686;2023-06-24T08:54:10;21.10;79.80
64705;DHT22;51131;52.298;13.686;2023-06-24T08:56:37;21.10;79.70
64705;DHT22;51131;52.298;13.686;2023-06-24T08:59:06;21.30;79.60
64705;DHT22;51131;52.298;13.686;2023-06-24T09:01:33;21.10;79.60
64705;DHT22;51131;52.298;13.686;2023-06-24T09:03:59;20.80;79.20
64705;DHT22;51131;52.298;13.686;2023-06-24T09:06:26;21.50;79.50
64705;DHT22;51131;52.298;13.686;2023-06-24T09:08:53;21.50;79.50
64705;DHT22;51131;52.298;13.686;2023-06-24T09:11:24;21.40;79.60
64705;DHT22;51131;52.298;13.686;2023-06-24T09:13:54;21.10;79.30
64705;DHT22;51131;52.298;13.686;2023-06-24T09:16:20;21.10;79.60
64705;DHT22;51131;52.298;13.686;2023-06-24T09:18:48;21.10;79.30
64705;DHT22;51131;52.298;13.686;2023-06-24T09:23:50;21.00;79.20
64705;DHT22;51131;52.298;13.686;2023-06-24T09:26:17;21.10;79.00
64705;DHT22;51131;52.298;13.686;2023-06-24T09:28:47;21.00;79.40
64705;DHT22;51131;52.298;13.686;2023-06-24T09:31:13;21.10;79.10
64705;DHT22;51131;52.298;13.686;2023-06-24T09:33:48;21.10;78.90
64705;DHT22;51131;52.298;13.686;2023-06-24T09:36:15;21.10;78.90
64705;DHT22;51131;52.298;13.686;2023-06-24T09:38:43;21.10;79.10
64705;DHT22;51131;52.298;13.686;2023-06-24T09:41:11;21.10;78.80
64705;DHT22;51131;52.298;13.686;2023-06-24T09:43:41;21.20;79.10
64705;DHT22;51131;52.298;13.686;2023-06-24T09:46:09;21.10;78.70
64705;DHT22;51131;52.298;13.686;2023-06-24T09:48:36;21.40;79.20
64705;DHT22;51131;52.298;13.686;2023-06-24T09:51:03;21.10;79.30
64705;DHT22;51131;52.298;13.686;2023-06-24T09:53:30;21.10;79.20
64705;DHT22;51131;52.298;13.686;2023-06-24T09:55:58;21.00;79.30
64705;DHT22;51131;52.298;13.686;2023-06-24T09:58:25;21.10;79.20
64705;DHT22;51131;52.298;13.686;2023-06-24T10:00:53;21.00;78.60
64705;DHT22;51131;52.298;13.686;2023-06-24T10:03:20;21.10;78.80
64705;DHT22;51131;52.298;13.686;2023-06-24T10:05:47;21.10;79.00
64705;DHT22;51131;52.298;13.686;2023-06-24T10:08:14;21.50;79.30
64705;DHT22;51131;52.298;13.686;2023-06-24T10:10:41;21.80;79.60
64705;DHT22;51131;52.298;13.686;2023-06-24T10:13:08;21.10;78.40
64705;DHT22;51131;52.298;13.686;2023-06-24T10:15:35;21.50;79.00
64705;DHT22;51131;52.298;13.686;2023-06-24T10:18:02;21.30;78.80
64705;DHT22;51131;52.298;13.686;2023-06-24T10:20:42;21.10;78.90
64705;DHT22;51131;52.298;13.686;2023-06-24T10:23:08;21.20;78.00
64705;DHT22;51131;52.298;13.686;2023-06-24T10:25:35;21.60;78.60
64705;DHT22;51131;52.298;13.686;2023-06-24T10:28:02;21.40;78.80
64705;DHT22;51131;52.298;13.686;2023-06-24T10:30:30;21.10;78.60
64705;DHT22;51131;52.298;13.686;2023-06-24T10:32:58;21.10;78.70
64705;DHT22;51131;52.298;13.686;2023-06-24T10:35:26;21.00;79.00
64705;DHT22;51131;52.298;13.686;2023-06-24T10:37:54;21.10;78.90
64705;DHT22;51131;52.298;13.686;2023-06-24T10:40:37;21.10;78.80
64705;DHT22;51131;52.298;13.686;2023-06-24T10:45:49;21.00;78.30
64705;DHT22;51131;52.298;13.686;2023-06-24T10:48:17;21.30;78.70
64705;DHT22;51131;52.298;13.686;2023-06-24T10:50:46;21.10;78.60
64705;DHT22;51131;52.298;13.686;2023-06-24T10:53:13;21.10;78.50
64705;DHT22;51131;52.298;13.686;2023-06-24T10:55:40;21.10;78.50
64705;DHT22;51131;52.298;13.686;2023-06-24T10:58:08;21.00;78.00
64705;DHT22;51131;52.298;13.686;2023-06-24T11:00:38;21.10;78.30
64705;DHT22;51131;52.298;13.686;2023-06-24T11:03:09;21.00;78.60
64705;DHT22;51131;52.298;13.686;2023-06-24T11:05:39;21.00;78.10
64705;DHT22;51131;52.298;13.686;2023-06-24T11:08:07;21.00;78.20
64705;DHT22;51131;52.298;13.686;2023-06-24T11:10:33;21.00;77.50
64705;DHT22;51131;52.298;13.686;2023-06-24T11:13:07;21.00;77.90
64705;DHT22;51131;52.298;13.686;2023-06-24T11:15:34;21.00;78.00
64705;DHT22;51131;52.298;13.686;2023-06-24T11:18:02;21.10;78.40
64705;DHT22;51131;52.298;13.686;2023-06-24T11:20:29;21.10;78.60
64705;DHT22;51131;52.298;13.686;2023-06-24T11:22:55;21.10;78.00
64705;DHT22;51131;52.298;13.686;2023-06-24T11:25:22;21.00;78.00
64705;DHT22;51131;52.298;13.686;2023-06-24T11:27:52;21.10;78.30
64705;DHT22;51131;52.298;13.686;2023-06-24T11:30:20;21.00;76.30
64705;DHT22;51131;52.298;13.686;2023-06-24T11:32:47;21.00;77.50
64705;DHT22;51131;52.298;13.686;2023-06-24T11:35:14;21.00;77.00
64705;DHT22;51131;52.298;13.686;2023-06-24T11:37:42;21.40;78.40
64705;DHT22;51131;52.298;13.686;2023-06-24T11:40:13;21.50;79.00
64705;DHT22;51131;52.298;13.686;2023-06-24T11:42:40;21.00;78.20
64705;DHT22;51131;52.298;13.686;2023-06-24T11:45:09;21.40;78.60
64705;DHT22;51131;52.298;13.686;2023-06-24T11:47:40;21.00;78.20
64705;DHT22;51131;52.298;13.686;2023-06-24T11:50:07;21.30;78.80
64705;DHT22;51131;52.298;13.686;2023-06-24T11:55:04;21.00;78.60
64705;DHT22;51131;52.298;13.686;2023-06-24T11:57:46;21.00;77.10
64705;DHT22;51131;52.298;13.686;2023-06-24T12:00:13;21.00;77.70
64705;DHT22;51131;52.298;13.686;2023-06-24T12:02:40;21.00;77.50
64705;DHT22;51131;52.298;13.686;2023-06-24T12:05:06;21.40;77.70
64705;DHT22;51131;52.298;13.686;2023-06-24T12:07:33;21.00;77.90
64705;DHT22;51131;52.298;13.686;2023-06-24T12:10:00;21.00;77.80
64705;DHT22;51131;52.298;13.686;2023-06-24T12:12:27;21.10;77.90
64705;DHT22;51131;52.298;13.686;2023-06-24T12:14:53;21.00;78.00
64705;DHT22;51131;52.298;13.686;2023-06-24T12:17:20;21.00;78.00
64705;DHT22;51131;52.298;13.686;2023-06-24T12:19:47;21.10;77.40
64705;DHT22;51131;52.298;13.686;2023-06-24T12:22:14;21.20;78.10
64705;DHT22;51131;52.298;13.686;2023-06-24T12:24:40;21.00;78.20
64705;DHT22;51131;52.298;13.686;2023-06-24T12:27:07;21.10;79.40
64705;DHT22;51131;52.298;13.686;2023-06-24T12:29:35;21.10;78.20
64705;DHT22;51131;52.298;13.686;2023-06-24T12:32:02;21.10;78.30
64705;DHT22;51131;52.298;13.686;2023-06-24T12:34:29;21.10;78.10
64705;DHT22;51131;52.298;13.686;2023-06-24T12:36:55;21.20;78.50
64705;DHT22;51131;52.298;13.686;2023-06-24T12:39:22;21.20;78.30
64705;DHT22;51131;52.298;13.686;2023-06-24T12:41:48;21.00;78.10
64705;DHT22;51131;52.298;13.686;2023-06-24T12:44:15;21.00;78.20
64705;DHT22;51131;52.298;13.686;2023-06-24T12:46:42;21.00;78.20
64705;DHT22;51131;52.298;13.686;2023-06-24T12:49:08;21.20;78.20
64705;DHT22;51131;52.298;13.686;2023-06-24T12:51:35;21.00;78.20
64705;DHT22;51131;52.298;13.686;2023-06-24T12:54:02;21.00;78.20
64705;DHT22;51131;52.298;13.686;2023-06-24T12:56:29;21.00;78.50
64705;DHT22;51131;52.298;13.686;2023-06-24T12:58:55;21.40;78.50
64705;DHT22;51131;52.298;13.686;2023-06-24T13:01:22;21.00;77.50
64705;DHT22;51131;52.298;13.686;2023-06-24T13:03:49;21.00;78.00
64705;DHT22;51131;52.298;13.686;2023-06-24T13:06:15;21.00;78.10
64705;DHT22;51131;52.298;13.686;2023-06-24T13:08:42;21.10;78.20
64705;DHT22;51131;52.298;13.686;2023-06-24T13:11:10;21.10;78.10
64705;DHT22;51131;52.298;13.686;2023-06-24T13:13:36;21.00;78.20
64705;DHT22;51131;52.298;13.686;2023-06-24T13:16:03;21.00;77.90
64705;DHT22;51131;52.298;13.686;2023-06-24T13:18:30;21.00;78.20
64705;DHT22;51131;52.298;13.686;2023-06-24T13:20:56;21.00;78.20
64705;DHT22;51131;52.298;13.686;2023-06-24T13:23:40;21.00;78.20
64705;DHT22;51131;52.298;13.686;2023-06-24T13:26:06;20.90;78.10
64705;DHT22;51131;52.298;13.686;2023-06-24T13:28:33;20.90;77.60
64705;DHT22;51131;52.298;13.686;2023-06-24T13:31:00;21.00;78.20
64705;DHT22;51131;52.298;13.686;2023-06-24T13:33:26;21.00;78.30
64705;DHT22;51131;52.298;13.686;2023-06-24T13:35:53;21.10;78.50
64705;DHT22;51131;52.298;13.686;2023-06-24T13:38:20;21.00;78.30
64705;DHT22;51131;52.298;13.686;2023-06-24T13:40:47;20.90;78.00
64705;DHT22;51131;52.298;13.686;2023-06-24T13:43:14;21.00;78.30
64705;DHT22;51131;52.298;13.686;2023-06-24T13:45:41;21.00;78.20
64705;DHT22;51131;52.298;13.686;2023-06-24T13:48:08;21.00;78.50
64705;DHT22;51131;52.298;13.686;2023-06-24T13:50:35;21.10;78.40
64705;DHT22;51131;52.298;13.686;2023-06-24T13:53:02;21.00;77.90
64705;DHT22;51131;52.298;13.686;2023-06-24T13:55:29;21.00;77.80
64705;DHT22;51131;52.298;13.686;2023-06-24T13:57:55;20.90;77.60
64705;DHT22;51131;52.298;13.686;2023-06-24T14:00:22;21.00;79.00
64705;DHT22;51131;52.298;13.686;2023-06-24T14:02:49;21.10;78.50
64705;DHT22;51131;52.298;13.686;2023-06-24T14:05:16;21.10;78.30
64705;DHT22;51131;52.298;13.686;2023-06-24T14:07:42;21.10;78.00
64705;DHT22;51131;52.298;13.686;2023-06-24T14:10:10;21.10;77.70
64705;DHT22;51131;52.298;13.686;2023-06-24T14:12:36;21.10;77.50
64705;DHT22;51131;52.298;13.686;2023-06-24T14:15:04;21.00;77.50
64705;DHT22;51131;52.298;13.686;2023-06-24T14:17:31;21.20;78.80
64705;DHT22;51131;52.298;13.686;2023-06-24T14:19:57;21.30;78.80
64705;DHT22;51131;52.298;13.686;2023-06-24T14:22:24;21.40;78.00
64705;DHT22;51131;52.298;13.686;2023-06-24T14:24:52;21.40;76.40
64705;DHT22;51131;52.298;13.686;2023-06-24T14:27:19;21.40;76.00
64705;DHT22;51131;52.298;13.686;2023-06-24T14:29:46;21.50;75.80
64705;DHT22;51131;52.298;13.686;2023-06-24T14:32:12;21.50;76.00
64705;DHT22;51131;52.298;13.686;2023-06-24T14:34:39;21.50;74.80
64705;DHT22;51131;52.298;13.686;2023-06-24T14:37:06;21.60;75.10
64705;DHT22;51131;52.298;13.686;2023-06-24T14:39:32;21.60;75.60
64705;DHT22;51131;52.298;13.686;2023-06-24T14:41:59;21.70;74.40
64705;DHT22;51131;52.298;13.686;2023-06-24T14:44:26;21.80;73.70
64705;DHT22;51131;52.298;13.686;2023-06-24T14:46:52;21.80;73.80
64705;DHT22;51131;52.298;13.686;2023-06-24T14:49:19;21.80;74.40
64705;DHT22;51131;52.298;13.686;2023-06-24T14:51:46;21.80;75.00
64705;DHT22;51131;52.298;13.686;2023-06-24T14:54:12;21.80;75.10
64705;DHT22;51131;52.298;13.686;2023-06-24T14:56:39;21.80;75.10
64705;DHT22;51131;52.298;13.686;2023-06-24T14:59:06;21.80;75.30
64705;DHT22;51131;52.298;13.686;2023-06-24T15:01:32;21.80;74.70
64705;DHT22;51131;52.298;13.686;2023-06-24T15:03:59;21.80;75.30
64705;DHT22;51131;52.298;13.686;2023-06-24T15:06:26;21.80;75.60
64705;DHT22;51131;52.298;13.686;2023-06-24T15:08:53;21.80;75.50
64705;DHT22;51131;52.298;13.686;2023-06-24T15:11:19;21.80;75.60
64705;DHT22;51131;52.298;13.686;2023-06-24T15:13:46;21.80;75.20
64705;DHT22;51131;52.298;13.686;2023-06-24T15:16:13;21.60;75.20
64705;DHT22;51131;52.298;13.686;2023-06-24T15:18:45;21.70;75.20
64705;DHT22;51131;52.298;13.686;2023-06-24T15:21:13;21.70;75.40
64705;DHT22;51131;52.298;13.686;2023-06-24T15:24:00;21.70;75.70
64705;DHT22;51131;52.298;13.686;2023-06-24T15:26:27;21.80;75.60
64705;DHT22;51131;52.298;13.686;2023-06-24T15:28:53;21.70;75.40
64705;DHT22;51131;52.298;13.686;2023-06-24T15:31:20;21.70;75.60